Terminal Aerodrome Forecast
Issued by NWS

Home | Current Version | Previous Version | Text Only | Print | Product List | Glossary On
Versions: 1 2 3 4 5 6 7 8 9 10 11 12 13
000
FTUS46 KOTX 222340
TAFCOE
TAF
KCOE 222340Z 2300/2324 01011KT P6SM SCT060 SCT150
     FM230500 02006KT P6SM FEW070
     FM231300 VRB03KT 6SM MIFG SCT002
     FM231600 16006KT P6SM BKN200
     FM232100 21008KT P6SM BKN100 OVC150=

USA.gov is the U.S. government's official web portal to all federal, state and local government web resources and services.